createdAt,value
2023-05-21T00:00:03.092Z,102074.72
2023-05-21T00:02:30.171Z,102083.81
2023-05-21T00:04:56.851Z,102077.56
2023-05-21T00:07:23.390Z,102081.22
2023-05-21T00:09:49.986Z,102075.84
2023-05-21T00:12:16.533Z,102081.22
2023-05-21T00:14:43.083Z,102072.47
2023-05-21T00:17:09.735Z,102073.31
2023-05-21T00:19:36.312Z,102074.16
2023-05-21T00:22:03.735Z,102066.22
2023-05-21T00:24:30.380Z,102070.75
2023-05-21T00:26:57.130Z,102071.63
2023-05-21T00:29:24.070Z,102069.03
2023-05-21T00:31:52.218Z,102072.75
2023-05-21T00:34:18.917Z,102064.66
2023-05-21T00:36:46.270Z,102068.19
2023-05-21T00:39:13.812Z,102067.34
2023-05-21T00:41:40.567Z,102062.81
2023-05-21T00:44:07.255Z,102065.66
2023-05-21T00:46:34.316Z,102063.81
2023-05-21T00:49:01.818Z,102065.66
2023-05-21T00:51:30.347Z,102061.25
2023-05-21T00:53:57.938Z,102051.31
2023-05-21T00:56:27.168Z,102054.03
2023-05-21T00:58:57.248Z,102058.56
2023-05-21T01:01:26.026Z,102046.91
2023-05-21T01:03:57.712Z,102049.59
2023-05-21T01:06:24.358Z,102044.22
2023-05-21T01:08:50.996Z,102040.81
2023-05-21T01:11:19.080Z,102039.81
2023-05-21T01:13:46.861Z,102039.81
2023-05-21T01:16:14.124Z,102046.22
2023-05-21T01:18:43.549Z,102043.53
2023-05-21T01:21:10.487Z,102035.44
2023-05-21T01:23:37.147Z,102035.44
2023-05-21T01:26:03.721Z,102028.34
2023-05-21T01:28:30.340Z,102026.50
2023-05-21T01:31:00.743Z,102021.22
2023-05-21T01:33:36.577Z,102030.19
2023-05-21T01:36:14.036Z,102026.63
2023-05-21T01:38:52.048Z,102035.72
2023-05-21T01:41:19.901Z,102037.41
2023-05-21T01:43:47.400Z,102040.09
2023-05-21T01:46:18.346Z,102031.31
2023-05-21T01:48:45.261Z,102033.88
2023-05-21T01:51:12.991Z,102038.56
2023-05-21T01:53:40.656Z,102032.31
2023-05-21T01:56:07.756Z,102024.25
2023-05-21T01:58:34.356Z,102031.47
2023-05-21T02:01:00.899Z,102032.44
2023-05-21T02:03:28.530Z,102031.59
2023-05-21T02:05:55.795Z,102025.38
2023-05-21T02:08:23.433Z,102032.63
2023-05-21T02:10:50.545Z,102036.31
2023-05-21T02:13:20.434Z,102039.00
2023-05-21T02:15:47.313Z,102029.19
2023-05-21T02:18:18.447Z,102026.50
2023-05-21T02:20:45.044Z,102026.50
2023-05-21T02:23:11.575Z,102028.34
2023-05-21T02:25:38.472Z,102021.25
2023-05-21T02:28:05.428Z,102025.81
2023-05-21T02:30:32.094Z,102028.50
2023-05-21T02:32:59.014Z,102032.19
2023-05-21T02:35:26.081Z,102021.41
2023-05-21T02:37:52.668Z,102026.81
2023-05-21T02:40:19.217Z,102022.25
2023-05-21T02:42:45.779Z,102022.38
2023-05-21T02:45:12.920Z,102017.00
2023-05-21T02:47:39.540Z,102025.97
2023-05-21T02:50:07.621Z,102026.94
2023-05-21T02:52:34.295Z,102022.38
2023-05-21T02:55:00.864Z,102024.25
2023-05-21T02:57:27.453Z,102027.09
2023-05-21T02:59:54.019Z,102027.09
2023-05-21T03:02:20.778Z,102027.94
2023-05-21T03:04:47.858Z,102027.09
2023-05-21T03:07:15.510Z,102024.41
2023-05-21T03:09:42.417Z,102031.63
2023-05-21T03:12:09.446Z,102031.63
2023-05-21T03:14:36.197Z,102023.56
2023-05-21T03:17:05.985Z,102018.28
2023-05-21T03:19:36.351Z,102014.63
2023-05-21T03:22:04.039Z,102020.00
2023-05-21T03:24:31.807Z,102018.28
2023-05-21T03:26:59.299Z,102013.06
2023-05-21T03:29:25.911Z,102009.34
2023-05-21T03:31:54.035Z,102009.34
2023-05-21T03:34:21.135Z,102009.34
2023-05-21T03:36:48.018Z,101999.56
2023-05-21T03:39:14.902Z,102005.97
2023-05-21T03:41:41.696Z,102007.81
2023-05-21T03:44:08.607Z,102010.34
2023-05-21T03:46:35.468Z,102015.91
2023-05-21T03:49:02.436Z,102008.66
2023-05-21T03:51:30.390Z,102006.09
2023-05-21T03:53:59.056Z,102001.56
2023-05-21T03:56:26.279Z,101999.00
2023-05-21T03:58:53.034Z,101998.00
2023-05-21T04:01:19.838Z,102005.25
2023-05-21T04:03:46.670Z,102010.63
2023-05-21T04:06:13.515Z,102005.25
2023-05-21T04:08:40.101Z,102001.72
2023-05-21T04:11:06.810Z,102008.78
2023-05-21T04:13:33.408Z,102003.41
2023-05-21T04:16:00.107Z,101999.00
2023-05-21T04:18:26.838Z,101999.00
2023-05-21T04:20:53.909Z,102007.94
2023-05-21T04:23:23.544Z,102009.78
2023-05-21T04:25:50.884Z,102012.47
2023-05-21T04:28:21.093Z,102007.09
2023-05-21T04:30:48.009Z,102001.72
2023-05-21T04:33:18.051Z,102007.94
2023-05-21T04:35:50.248Z,102008.78
2023-05-21T04:38:20.802Z,102015.19
2023-05-21T04:40:50.865Z,102015.19
2023-05-21T04:43:17.592Z,102015.19
2023-05-21T04:45:44.271Z,102009.78
2023-05-21T04:48:10.854Z,102009.78
2023-05-21T04:50:37.390Z,102010.63
2023-05-21T04:53:03.950Z,102007.09
2023-05-21T04:55:30.514Z,102008.09
2023-05-21T04:57:57.399Z,102007.94
2023-05-21T05:00:26.147Z,102008.78
2023-05-21T05:02:52.859Z,102014.19
2023-05-21T05:05:19.638Z,102010.63
2023-05-21T05:07:46.364Z,102013.31
2023-05-21T05:10:13.013Z,102008.78
2023-05-21T05:12:39.575Z,102003.41
2023-05-21T05:15:06.652Z,102007.81
2023-05-21T05:17:34.420Z,102001.56
2023-05-21T05:20:01.253Z,102004.25
2023-05-21T05:22:27.805Z,102010.50
2023-05-21T05:24:54.349Z,102010.34
2023-05-21T05:27:21.004Z,102008.66
2023-05-21T05:29:48.019Z,102008.50
2023-05-21T05:32:14.695Z,102004.97
2023-05-21T05:34:42.610Z,102004.97
2023-05-21T05:37:09.131Z,102010.19
2023-05-21T05:39:35.828Z,102009.34
2023-05-21T05:42:03.289Z,102002.28
2023-05-21T05:44:29.869Z,101998.56
2023-05-21T05:46:56.431Z,101996.72
2023-05-21T05:49:23.008Z,102002.13
2023-05-21T05:51:49.584Z,102004.81
2023-05-21T05:54:16.139Z,101993.06
2023-05-21T05:56:42.649Z,101995.75
2023-05-21T05:59:09.176Z,101993.91
2023-05-21T06:01:35.763Z,101994.75
2023-05-21T06:04:02.380Z,101990.22
2023-05-21T06:06:28.921Z,101995.59
2023-05-21T06:08:55.567Z,101995.59
2023-05-21T06:11:22.741Z,101998.28
2023-05-21T06:13:49.374Z,101995.44
2023-05-21T06:16:16.176Z,101990.03
2023-05-21T06:18:42.822Z,101999.97
2023-05-21T06:21:09.516Z,101990.03
2023-05-21T06:23:37.729Z,101981.97
2023-05-21T06:26:04.758Z,101993.63
2023-05-21T06:28:31.589Z,101996.16
2023-05-21T06:30:58.221Z,101997.84
2023-05-21T06:33:24.939Z,101987.06
2023-05-21T06:35:51.595Z,101996.84
2023-05-21T06:38:18.132Z,101995.03
2023-05-21T06:40:47.451Z,101995.03
2023-05-21T06:43:14.395Z,101998.56
2023-05-21T06:45:41.251Z,101988.47
2023-05-21T06:48:08.130Z,101993.03
2023-05-21T06:50:34.749Z,101995.56
2023-05-21T06:53:01.475Z,101990.03
2023-05-21T06:55:28.112Z,101988.03
2023-05-21T06:57:54.751Z,101991.44
2023-05-21T07:00:21.289Z,101982.22
2023-05-21T07:02:47.916Z,101987.31
2023-05-21T07:05:14.503Z,101978.22
2023-05-21T07:07:41.044Z,101988.03
2023-05-21T07:10:08.421Z,101985.19
2023-05-21T07:12:35.239Z,101986.03
2023-05-21T07:15:01.871Z,101984.03
2023-05-21T07:17:28.416Z,101991.13
2023-05-21T07:19:55.018Z,101985.75
2023-05-21T07:22:21.774Z,101998.09
2023-05-21T07:24:48.330Z,101995.38
2023-05-21T07:27:25.206Z,101995.94
2023-05-21T07:29:52.612Z,101997.63
2023-05-21T07:32:19.178Z,101998.50
2023-05-21T07:34:45.710Z,101996.63
2023-05-21T07:37:12.949Z,101998.31
2023-05-21T07:39:39.989Z,101996.47
2023-05-21T07:42:06.536Z,101986.56
2023-05-21T07:44:33.101Z,101990.97
2023-05-21T07:46:59.730Z,101983.75
2023-05-21T07:49:26.313Z,101988.13
2023-05-21T07:51:52.881Z,101988.00
2023-05-21T07:54:19.787Z,101981.72
2023-05-21T07:56:46.415Z,101986.28
2023-05-21T07:59:14.725Z,101982.63
2023-05-21T08:01:41.973Z,101988.69
2023-05-21T08:04:08.882Z,101982.28
2023-05-21T08:06:37.485Z,101983.13
2023-05-21T08:09:06.221Z,101973.22
2023-05-21T08:11:33.200Z,101974.06
2023-05-21T08:13:59.858Z,101973.91
2023-05-21T08:16:26.480Z,101980.16
2023-05-21T08:18:53.108Z,101980.16
2023-05-21T08:21:19.861Z,101982.72
2023-05-21T08:23:46.472Z,101976.31
2023-05-21T08:26:13.115Z,101980.72
2023-05-21T08:28:39.751Z,101975.31
2023-05-21T08:31:06.425Z,101970.63
2023-05-21T08:33:37.144Z,101975.16
2023-05-21T08:36:05.532Z,101978.56
2023-05-21T08:38:32.198Z,101975.88
2023-05-21T08:40:59.963Z,101979.41
2023-05-21T08:43:29.728Z,101969.47
2023-05-21T08:45:59.219Z,101973.84
2023-05-21T08:48:26.261Z,101976.44
2023-05-21T08:50:54.132Z,101973.72
2023-05-21T08:53:28.173Z,101977.09
2023-05-21T08:55:56.103Z,101973.56
2023-05-21T08:58:23.015Z,101968.16
2023-05-21T09:00:49.705Z,101973.44
2023-05-21T09:03:16.714Z,101976.97
2023-05-21T09:05:45.679Z,101968.72
2023-05-21T09:08:22.017Z,101962.47
2023-05-21T09:10:50.799Z,101965.00
2023-05-21T09:13:18.343Z,101958.66
2023-05-21T09:15:46.002Z,101960.34
2023-05-21T09:18:15.641Z,101959.31
2023-05-21T09:20:42.210Z,101960.16
2023-05-21T09:23:16.687Z,101957.34
2023-05-21T09:25:49.686Z,101958.19
2023-05-21T09:28:17.499Z,101953.47
2023-05-21T09:30:45.772Z,101945.25
2023-05-21T09:33:12.792Z,101950.47
2023-05-21T09:35:46.772Z,101949.47
2023-05-21T09:38:13.412Z,101955.44
2023-05-21T09:40:46.201Z,101954.41
2023-05-21T09:43:16.386Z,101950.56
2023-05-21T09:45:53.711Z,101945.00
2023-05-21T09:48:34.699Z,101948.25
2023-05-21T09:51:16.073Z,101942.72
2023-05-21T09:53:57.990Z,101940.41
2023-05-21T09:56:26.838Z,101941.97
2023-05-21T09:58:57.526Z,101932.69
2023-05-21T10:01:25.067Z,101939.50
2023-05-21T10:03:57.212Z,101940.22
2023-05-21T10:06:31.313Z,101934.50
2023-05-21T10:09:05.797Z,101927.09
2023-05-21T10:11:34.659Z,101931.34
2023-05-21T10:14:07.466Z,101925.59
2023-05-21T10:16:36.021Z,101923.47
2023-05-21T10:19:04.431Z,101923.34
2023-05-21T10:21:33.419Z,101923.00
2023-05-21T10:24:02.435Z,101919.16
2023-05-21T10:26:29.964Z,101916.16
2023-05-21T10:29:00.643Z,101923.97
2023-05-21T10:31:28.650Z,101924.50
2023-05-21T10:33:56.150Z,101912.50
2023-05-21T10:36:25.593Z,101915.09
2023-05-21T10:38:53.004Z,101921.00
2023-05-21T10:41:21.861Z,101927.09
2023-05-21T10:43:51.694Z,101929.50
2023-05-21T10:47:06.770Z,101923.94
2023-05-21T10:50:08.622Z,101916.38
2023-05-21T10:52:52.656Z,101910.66
2023-05-21T10:55:54.495Z,101913.03
2023-05-21T10:58:36.549Z,101918.09
2023-05-21T11:01:03.852Z,101920.50
2023-05-21T11:03:34.281Z,101920.34
2023-05-21T11:06:06.330Z,101914.78
2023-05-21T11:08:36.154Z,101908.19
2023-05-21T11:11:03.872Z,101911.59
2023-05-21T11:13:51.958Z,101906.03
2023-05-21T11:16:18.673Z,101906.56
2023-05-21T11:18:45.196Z,101899.16
2023-05-21T11:21:17.036Z,101905.41
2023-05-21T11:23:59.456Z,101892.56
2023-05-21T11:26:27.765Z,101894.28
2023-05-21T11:29:03.380Z,101890.56
2023-05-21T11:31:38.392Z,101887.56
2023-05-21T11:34:11.279Z,101881.28
2023-05-21T11:36:38.804Z,101883.66
2023-05-21T11:39:12.492Z,101877.28
2023-05-21T11:41:58.469Z,101880.81
2023-05-21T11:44:45.692Z,101883.22
2023-05-21T11:47:15.752Z,101881.22
2023-05-21T11:49:42.862Z,101875.63
2023-05-21T11:52:10.943Z,101870.94
2023-05-21T11:54:51.862Z,101868.03
2023-05-21T11:57:19.453Z,101866.03
2023-05-21T11:59:47.131Z,101866.88
2023-05-21T12:02:18.599Z,101858.59
2023-05-21T12:04:46.415Z,101864.84
2023-05-21T12:07:15.054Z,101860.28
2023-05-21T12:09:49.737Z,101850.34
2023-05-21T12:12:21.497Z,101854.88
2023-05-21T12:14:49.925Z,101854.88
2023-05-21T12:17:18.523Z,101851.34
2023-05-21T12:19:46.426Z,101846.78
2023-05-21T12:22:13.599Z,101847.78
2023-05-21T12:24:40.180Z,101844.25
2023-05-21T12:27:12.959Z,101841.38
2023-05-21T12:29:42.577Z,101838.66
2023-05-21T12:32:12.512Z,101843.22
2023-05-21T12:34:45.658Z,101836.97
2023-05-21T12:37:12.174Z,101833.41
2023-05-21T12:39:40.248Z,101849.66
2023-05-21T12:42:07.308Z,101847.78
2023-05-21T12:44:36.630Z,101842.38
2023-05-21T12:47:03.793Z,101842.38
2023-05-21T12:49:32.845Z,101840.50
2023-05-21T12:51:59.473Z,101838.66
2023-05-21T12:54:32.155Z,101840.50
2023-05-21T12:57:05.495Z,101838.66
2023-05-21T12:59:49.326Z,101836.81
2023-05-21T13:02:32.554Z,101836.97
2023-05-21T13:05:04.031Z,101831.25
2023-05-21T13:07:32.385Z,101839.53
2023-05-21T13:10:00.292Z,101832.41
2023-05-21T13:12:29.128Z,101831.56
2023-05-21T13:14:57.496Z,101829.03
2023-05-21T13:17:25.939Z,101829.88
2023-05-21T13:20:13.103Z,101829.19
2023-05-21T13:22:47.873Z,101829.03
2023-05-21T13:25:16.693Z,101829.03
2023-05-21T13:27:43.892Z,101833.59
2023-05-21T13:30:14.166Z,101829.88
2023-05-21T13:32:42.132Z,101823.63
2023-05-21T13:35:10.113Z,101823.63
2023-05-21T13:37:36.892Z,101821.75
2023-05-21T13:40:10.926Z,101820.06
2023-05-21T13:42:38.579Z,101818.22
2023-05-21T13:45:06.610Z,101820.91
2023-05-21T13:47:33.796Z,101820.06
2023-05-21T13:50:00.519Z,101818.22
2023-05-21T13:52:27.279Z,101828.00
2023-05-21T13:54:53.889Z,101819.06
2023-05-21T13:57:20.606Z,101825.31
2023-05-21T13:59:47.597Z,101817.19
2023-05-21T14:02:14.245Z,101823.44
2023-05-21T14:04:41.038Z,101819.91
2023-05-21T14:07:07.757Z,101823.44
2023-05-21T14:09:34.592Z,101822.59
2023-05-21T14:12:01.524Z,101824.47
2023-05-21T14:14:28.178Z,101822.59
2023-05-21T14:16:55.097Z,101838.66
2023-05-21T14:19:24.060Z,101821.59
2023-05-21T14:21:53.719Z,101826.16
2023-05-21T14:24:20.434Z,101822.44
2023-05-21T14:26:47.062Z,101822.44
2023-05-21T14:29:14.755Z,101822.44
2023-05-21T14:31:41.359Z,101819.72
2023-05-21T14:34:08.796Z,101821.59
2023-05-21T14:36:36.311Z,101822.44
2023-05-21T14:39:03.102Z,101822.44
2023-05-21T14:41:29.701Z,101820.59
2023-05-21T14:43:56.311Z,101807.94
2023-05-21T14:46:22.971Z,101810.63
2023-05-21T14:48:49.690Z,101825.00
2023-05-21T14:51:16.528Z,101812.50
2023-05-21T14:53:43.098Z,101808.75
2023-05-21T14:56:09.770Z,101803.34
2023-05-21T14:58:36.432Z,101798.78
2023-05-21T15:01:04.267Z,101800.66
2023-05-21T15:03:31.223Z,101792.53
2023-05-21T15:05:58.629Z,101792.53
2023-05-21T15:08:25.808Z,101781.72
2023-05-21T15:10:52.709Z,101779.03
2023-05-21T15:13:19.376Z,101785.28
2023-05-21T15:15:46.230Z,101782.56
2023-05-21T15:18:12.995Z,101779.88
2023-05-21T15:20:39.695Z,101778.19
2023-05-21T15:23:15.968Z,101775.31
2023-05-21T15:25:44.373Z,101773.44
2023-05-21T15:28:12.321Z,101771.75
2023-05-21T15:30:39.179Z,101780.72
2023-05-21T15:33:05.796Z,101770.72
2023-05-21T15:35:32.650Z,101768.03
2023-05-21T15:37:59.390Z,101768.03
2023-05-21T15:40:27.215Z,101765.31
2023-05-21T15:42:54.117Z,101771.56
2023-05-21T15:45:20.983Z,101773.44
2023-05-21T15:47:47.721Z,101768.88
2023-05-21T15:50:14.450Z,101763.47
2023-05-21T15:52:42.079Z,101757.22
2023-05-21T15:55:09.309Z,101764.31
2023-05-21T15:57:35.911Z,101750.78
2023-05-21T16:00:02.689Z,101749.94
2023-05-21T16:02:29.315Z,101754.50
2023-05-21T16:04:56.016Z,101752.66
2023-05-21T16:07:24.454Z,101757.22
2023-05-21T16:09:51.171Z,101761.78
2023-05-21T16:12:18.073Z,101758.06
2023-05-21T16:14:44.902Z,101763.47
2023-05-21T16:17:11.644Z,101760.75
2023-05-21T16:19:38.930Z,101758.06
2023-05-21T16:22:05.900Z,101765.31
2023-05-21T16:24:32.818Z,101755.34
2023-05-21T16:26:59.426Z,101766.16
2023-05-21T16:29:26.085Z,101760.75
2023-05-21T16:31:52.730Z,101768.88
2023-05-21T16:34:19.325Z,101761.59
2023-05-21T16:36:46.340Z,101760.75
2023-05-21T16:39:12.891Z,101762.63
2023-05-21T16:41:39.632Z,101762.47
2023-05-21T16:44:06.247Z,101764.47
2023-05-21T16:46:33.002Z,101762.63
2023-05-21T16:48:59.691Z,101763.47
2023-05-21T16:51:26.292Z,101756.38
2023-05-21T16:53:52.940Z,101757.22
2023-05-21T16:56:19.522Z,101760.75
2023-05-21T16:58:46.193Z,101762.63
2023-05-21T17:01:13.266Z,101758.06
2023-05-21T17:03:43.100Z,101762.63
2023-05-21T17:06:10.129Z,101754.50
2023-05-21T17:08:36.776Z,101756.38
2023-05-21T17:11:03.485Z,101768.03
2023-05-21T17:13:30.105Z,101756.38
2023-05-21T17:15:56.722Z,101750.97
2023-05-21T17:18:23.360Z,101758.91
2023-05-21T17:20:50.100Z,101759.91
2023-05-21T17:23:16.798Z,101761.78
2023-05-21T17:25:43.556Z,101761.78
2023-05-21T17:28:11.206Z,101751.81
2023-05-21T17:30:37.933Z,101751.81
2023-05-21T17:33:04.610Z,101744.72
2023-05-21T17:35:31.223Z,101744.72
2023-05-21T17:37:57.937Z,101746.41
2023-05-21T17:40:25.155Z,101734.75
2023-05-21T17:42:52.611Z,101744.72
2023-05-21T17:45:19.467Z,101742.00
2023-05-21T17:47:46.271Z,101746.41
2023-05-21T17:50:13.247Z,101747.41
2023-05-21T17:52:40.067Z,101743.69
2023-05-21T17:55:07.907Z,101741.16
2023-05-21T17:57:36.031Z,101739.31
2023-05-21T18:00:04.961Z,101743.03
2023-05-21T18:02:31.754Z,101733.91
2023-05-21T18:04:58.585Z,101740.31
2023-05-21T18:07:25.591Z,101743.88
2023-05-21T18:09:52.189Z,101743.03
2023-05-21T18:12:18.796Z,101744.88
2023-05-21T18:14:45.882Z,101743.03
2023-05-21T18:17:12.621Z,101744.88
2023-05-21T18:19:39.178Z,101747.59
2023-05-21T18:22:05.903Z,101749.28
2023-05-21T18:24:32.590Z,101750.28
2023-05-21T18:26:59.208Z,101753.84
2023-05-21T18:29:25.808Z,101758.41
2023-05-21T18:31:52.524Z,101752.13
2023-05-21T18:34:19.210Z,101751.13
2023-05-21T18:36:45.794Z,101750.44
2023-05-21T18:39:12.675Z,101749.41
2023-05-21T18:41:39.302Z,101752.13
2023-05-21T18:44:06.386Z,101755.84
2023-05-21T18:46:33.344Z,101755.84
2023-05-21T18:49:00.549Z,101751.47
2023-05-21T18:51:27.271Z,101754.16
2023-05-21T18:53:53.894Z,101748.75
2023-05-21T18:56:21.808Z,101747.91
2023-05-21T18:58:48.585Z,101748.75
2023-05-21T19:01:15.897Z,101751.63
2023-05-21T19:03:42.609Z,101753.47
2023-05-21T19:06:09.291Z,101752.63
2023-05-21T19:08:35.886Z,101752.63
2023-05-21T19:11:02.669Z,101744.50
2023-05-21T19:13:29.547Z,101755.50
2023-05-21T19:15:57.435Z,101750.09
2023-05-21T19:18:30.214Z,101759.91
2023-05-21T19:20:57.119Z,101756.34
2023-05-21T19:23:24.637Z,101757.38
2023-05-21T19:25:51.466Z,101760.06
2023-05-21T19:28:18.886Z,101753.81
2023-05-21T19:30:46.407Z,101751.13
2023-05-21T19:33:13.513Z,101755.69
2023-05-21T19:35:41.920Z,101760.06
2023-05-21T19:38:10.858Z,101756.66
2023-05-21T19:40:37.872Z,101759.38
2023-05-21T19:43:04.952Z,101756.84
2023-05-21T19:45:31.699Z,101767.66
2023-05-21T19:47:59.607Z,101762.25
2023-05-21T19:50:28.664Z,101751.72
2023-05-21T19:52:57.218Z,101756.28
2023-05-21T19:55:24.746Z,101763.56
2023-05-21T19:57:51.598Z,101765.41
2023-05-21T20:00:18.951Z,101770.97
2023-05-21T20:02:46.058Z,101770.13
2023-05-21T20:05:12.808Z,101773.84
2023-05-21T20:07:39.593Z,101766.91
2023-05-21T20:10:06.994Z,101772.31
2023-05-21T20:12:33.619Z,101777.03
2023-05-21T20:15:00.961Z,101775.19
2023-05-21T20:17:28.665Z,101770.94
2023-05-21T20:19:57.246Z,101771.94
2023-05-21T20:22:23.944Z,101765.72
2023-05-21T20:24:50.677Z,101773.13
2023-05-21T20:27:19.974Z,101770.59
2023-05-21T20:29:46.777Z,101765.34
2023-05-21T20:32:13.481Z,101762.78
2023-05-21T20:34:50.739Z,101766.50
2023-05-21T20:37:28.061Z,101761.28
2023-05-21T20:39:57.752Z,101761.44
2023-05-21T20:42:28.574Z,101757.88
2023-05-21T20:44:55.482Z,101746.41
2023-05-21T20:47:23.490Z,101749.25
2023-05-21T20:49:53.869Z,101747.56
2023-05-21T20:52:20.757Z,101752.28
2023-05-21T20:54:48.914Z,101748.91
2023-05-21T20:57:16.067Z,101755.31
2023-05-21T20:59:43.304Z,101750.94
2023-05-21T21:02:14.259Z,101761.88
2023-05-21T21:04:42.145Z,101758.50
2023-05-21T21:07:10.027Z,101749.69
2023-05-21T21:09:37.270Z,101753.41
2023-05-21T21:12:14.392Z,101750.00
2023-05-21T21:14:50.982Z,101746.47
2023-05-21T21:17:17.532Z,101750.19
2023-05-21T21:19:44.096Z,101747.78
2023-05-21T21:22:10.795Z,101751.50
2023-05-21T21:24:37.385Z,101757.09
2023-05-21T21:27:04.050Z,101760.78
2023-05-21T21:29:30.655Z,101751.81
2023-05-21T21:31:57.356Z,101751.16
2023-05-21T21:34:25.173Z,101747.63
2023-05-21T21:36:51.788Z,101744.22
2023-05-21T21:39:18.508Z,101755.00
2023-05-21T21:41:45.674Z,101751.63
2023-05-21T21:44:12.280Z,101752.63
2023-05-21T21:46:39.085Z,101752.78
2023-05-21T21:49:05.703Z,101748.41
2023-05-21T21:51:32.298Z,101746.03
2023-05-21T21:53:58.856Z,101742.63
2023-05-21T21:56:26.204Z,101738.22
2023-05-21T21:58:52.858Z,101745.50
2023-05-21T22:01:19.443Z,101750.19
2023-05-21T22:03:46.114Z,101739.56
2023-05-21T22:06:12.717Z,101740.72
2023-05-21T22:08:39.258Z,101746.09
2023-05-21T22:11:06.041Z,101746.41
2023-05-21T22:13:32.701Z,101734.78
2023-05-21T22:15:59.322Z,101738.47
2023-05-21T22:18:39.612Z,101742.16
2023-05-21T22:21:09.699Z,101747.75
2023-05-21T22:23:37.169Z,101742.47
2023-05-21T22:26:03.964Z,101748.22
2023-05-21T22:28:30.529Z,101735.69
2023-05-21T22:30:57.264Z,101734.88
2023-05-21T22:33:24.450Z,101726.94
2023-05-21T22:35:51.141Z,101728.94
2023-05-21T22:38:18.047Z,101732.63
2023-05-21T22:40:44.657Z,101728.25
2023-05-21T22:43:11.382Z,101731.09
2023-05-21T22:45:38.438Z,101728.56
2023-05-21T22:48:08.389Z,101729.56
2023-05-21T22:50:35.915Z,101736.84
2023-05-21T22:53:02.739Z,101730.59
2023-05-21T22:55:29.373Z,101724.31
2023-05-21T22:57:55.961Z,101730.59
2023-05-21T23:00:22.648Z,101726.16
2023-05-21T23:02:52.199Z,101724.50
2023-05-21T23:05:20.659Z,101720.25
2023-05-21T23:07:47.281Z,101720.25
2023-05-21T23:10:13.813Z,101717.72
2023-05-21T23:12:40.926Z,101718.56
2023-05-21T23:15:09.738Z,101711.47
2023-05-21T23:17:36.915Z,101714.16
2023-05-21T23:20:04.005Z,101715.19
2023-05-21T23:22:30.648Z,101702.66
2023-05-21T23:24:57.225Z,101703.69
2023-05-21T23:27:24.015Z,101702.66
2023-05-21T23:29:50.720Z,101694.75
2023-05-21T23:32:17.849Z,101691.03
2023-05-21T23:34:44.711Z,101695.75
2023-05-21T23:37:11.327Z,101693.91
2023-05-21T23:39:38.028Z,101687.66
2023-05-21T23:42:05.059Z,101703.84
2023-05-21T23:44:31.699Z,101694.91
2023-05-21T23:46:58.311Z,101704.84
2023-05-21T23:49:24.976Z,101719.19
2023-05-21T23:51:51.671Z,101734.50
2023-05-21T23:54:18.451Z,101752.56
2023-05-21T23:56:45.776Z,101749.88
2023-05-21T23:59:12.374Z,101747.34
